Terminal Aerodrome Forecast
Issued by NWS Duluth, MN

Home | Current Version | Previous Version | Text Only | Print | Product List | Glossary On
Versions: 1 2 3 4 5 6 7 8 9 10 11 12 13 14 15 16 17 18 19 20 21 22
456
FTUS43 KDLH 201742
TAFINL
TAF
KINL 201742Z 2018/2118 15009KT 6SM -SHRA VCTS OVC015CB
     FM202000 16009KT 6SM -SHRA VCTS SCT007 OVC012CB
     FM202200 19009KT 3SM SHRA BR OVC007
     FM210000 21007KT P6SM VCSH OVC007
     FM210300 25008KT 5SM BR BKN010
     FM211200 22010KT P6SM SCT250=

USA.gov is the U.S. government's official web portal to all federal, state and local government web resources and services.